sensor_id;sensor_type;location;lat;lon;timestamp;P1;P2;P0
76049;PMS7003;64967;50.234;19.224;2022-12-08T00:01:18;3.50;2.75;1.75
76049;PMS7003;64967;50.234;19.224;2022-12-08T00:03:47;3.25;2.75;2.00
76049;PMS7003;64967;50.234;19.224;2022-12-08T00:06:19;9.00;6.00;3.75
76049;PMS7003;64967;50.234;19.224;2022-12-08T00:09:12;5.50;4.50;2.00
76049;PMS7003;64967;50.234;19.224;2022-12-08T00:11:48;7.75;5.00;2.00
76049;PMS7003;64967;50.234;19.224;2022-12-08T00:14:16;4.50;4.00;3.00
76049;PMS7003;64967;50.234;19.224;2022-12-08T00:16:43;3.25;3.25;2.00
76049;PMS7003;64967;50.234;19.224;2022-12-08T00:19:10;3.50;2.25;2.00
76049;PMS7003;64967;50.234;19.224;2022-12-08T00:21:37;6.00;4.00;2.00
76049;PMS7003;64967;50.234;19.224;2022-12-08T00:24:04;6.25;4.75;2.00
76049;PMS7003;64967;50.234;19.224;2022-12-08T00:26:31;1.00;1.00;1.00
76049;PMS7003;64967;50.234;19.224;2022-12-08T00:28:58;4.75;3.00;2.25
76049;PMS7003;64967;50.234;19.224;2022-12-08T00:31:25;4.00;2.00;2.00
76049;PMS7003;64967;50.234;19.224;2022-12-08T00:33:52;2.00;1.75;1.00
76049;PMS7003;64967;50.234;19.224;2022-12-08T00:36:19;1.75;1.00;1.00
76049;PMS7003;64967;50.234;19.224;2022-12-08T00:38:46;0.00;0.00;0.00
76049;PMS7003;64967;50.234;19.224;2022-12-08T00:41:15;2.00;1.75;1.00
76049;PMS7003;64967;50.234;19.224;2022-12-08T00:43:44;1.00;0.25;0.00
76049;PMS7003;64967;50.234;19.224;2022-12-08T00:46:11;2.00;2.00;1.00
76049;PMS7003;64967;50.234;19.224;2022-12-08T00:48:38;2.25;1.00;0.00
76049;PMS7003;64967;50.234;19.224;2022-12-08T00:51:05;0.25;0.25;0.00
76049;PMS7003;64967;50.234;19.224;2022-12-08T00:53:32;0.50;0.00;0.00
76049;PMS7003;64967;50.234;19.224;2022-12-08T00:55:59;0.25;0.25;0.00
76049;PMS7003;64967;50.234;19.224;2022-12-08T00:58:26;0.00;0.00;0.00
76049;PMS7003;64967;50.234;19.224;2022-12-08T01:00:54;1.50;0.00;0.00
76049;PMS7003;64967;50.234;19.224;2022-12-08T01:03:21;1.00;0.50;0.50
76049;PMS7003;64967;50.234;19.224;2022-12-08T01:05:48;1.00;1.00;1.00
76049;PMS7003;64967;50.234;19.224;2022-12-08T01:08:15;1.25;1.00;0.75
76049;PMS7003;64967;50.234;19.224;2022-12-08T01:10:42;3.00;1.75;1.00
76049;PMS7003;64967;50.234;19.224;2022-12-08T01:13:09;2.50;1.50;1.00
76049;PMS7003;64967;50.234;19.224;2022-12-08T01:15:36;1.00;1.00;1.00
76049;PMS7003;64967;50.234;19.224;2022-12-08T01:18:03;1.00;1.00;1.00
76049;PMS7003;64967;50.234;19.224;2022-12-08T01:20:30;0.00;0.00;0.00
76049;PMS7003;64967;50.234;19.224;2022-12-08T01:22:57;0.50;0.50;0.00
76049;PMS7003;64967;50.234;19.224;2022-12-08T01:25:24;0.50;0.00;0.00
76049;PMS7003;64967;50.234;19.224;2022-12-08T01:27:51;0.00;0.00;0.00
76049;PMS7003;64967;50.234;19.224;2022-12-08T01:30:19;1.00;1.00;0.00
76049;PMS7003;64967;50.234;19.224;2022-12-08T01:32:46;2.00;1.00;0.50
76049;PMS7003;64967;50.234;19.224;2022-12-08T01:35:13;1.00;0.00;0.00
76049;PMS7003;64967;50.234;19.224;2022-12-08T01:37:40;1.00;0.00;0.00
76049;PMS7003;64967;50.234;19.224;2022-12-08T01:40:07;0.50;0.00;0.00
76049;PMS7003;64967;50.234;19.224;2022-12-08T01:42:35;0.00;0.00;0.00
76049;PMS7003;64967;50.234;19.224;2022-12-08T01:47:56;3.00;1.00;1.00
76049;PMS7003;64967;50.234;19.224;2022-12-08T01:50:28;2.00;1.00;1.00
76049;PMS7003;64967;50.234;19.224;2022-12-08T01:53:00;0.25;0.25;0.00
76049;PMS7003;64967;50.234;19.224;2022-12-08T01:55:36;1.00;1.00;0.00
76049;PMS7003;64967;50.234;19.224;2022-12-08T02:01:09;1.00;1.00;0.75
76049;PMS7003;64967;50.234;19.224;2022-12-08T02:06:29;1.00;0.00;0.00
76049;PMS7003;64967;50.234;19.224;2022-12-08T02:09:19;1.00;0.00;0.00
76049;PMS7003;64967;50.234;19.224;2022-12-08T02:12:06;0.50;0.50;0.00
76049;PMS7003;64967;50.234;19.224;2022-12-08T02:14:52;1.00;0.00;0.00
76049;PMS7003;64967;50.234;19.224;2022-12-08T02:40:49;2.00;1.00;1.00
76049;PMS7003;64967;50.234;19.224;2022-12-08T02:43:28;2.25;1.00;0.00
76049;PMS7003;64967;50.234;19.224;2022-12-08T02:46:00;0.00;0.00;0.00
76049;PMS7003;64967;50.234;19.224;2022-12-08T02:48:31;0.00;0.00;0.00
76049;PMS7003;64967;50.234;19.224;2022-12-08T02:50:59;0.50;0.00;0.00
76049;PMS7003;64967;50.234;19.224;2022-12-08T02:53:30;1.00;1.00;0.00
76049;PMS7003;64967;50.234;19.224;2022-12-08T03:02:01;0.00;0.00;0.00
76049;PMS7003;64967;50.234;19.224;2022-12-08T03:12:30;0.00;0.00;0.00
76049;PMS7003;64967;50.234;19.224;2022-12-08T03:15:08;0.00;0.00;0.00
76049;PMS7003;64967;50.234;19.224;2022-12-08T03:17:40;0.00;0.00;0.00
76049;PMS7003;64967;50.234;19.224;2022-12-08T03:20:12;1.00;0.75;0.00
76049;PMS7003;64967;50.234;19.224;2022-12-08T03:22:42;0.00;0.00;0.00
76049;PMS7003;64967;50.234;19.224;2022-12-08T03:25:12;0.25;0.25;0.00
76049;PMS7003;64967;50.234;19.224;2022-12-08T03:27:40;0.00;0.00;0.00
76049;PMS7003;64967;50.234;19.224;2022-12-08T03:30:08;0.00;0.00;0.00
76049;PMS7003;64967;50.234;19.224;2022-12-08T03:32:43;1.00;1.00;0.75
76049;PMS7003;64967;50.234;19.224;2022-12-08T03:35:27;1.00;1.00;1.00
76049;PMS7003;64967;50.234;19.224;2022-12-08T03:38:06;0.25;0.00;0.00
76049;PMS7003;64967;50.234;19.224;2022-12-08T03:40:36;0.00;0.00;0.00
76049;PMS7003;64967;50.234;19.224;2022-12-08T03:43:03;0.25;0.00;0.00
76049;PMS7003;64967;50.234;19.224;2022-12-08T03:45:30;0.50;0.50;0.25
76049;PMS7003;64967;50.234;19.224;2022-12-08T03:47:57;1.00;0.00;0.00
76049;PMS7003;64967;50.234;19.224;2022-12-08T03:50:24;0.00;0.00;0.00
76049;PMS7003;64967;50.234;19.224;2022-12-08T03:52:52;0.00;0.00;0.00
76049;PMS7003;64967;50.234;19.224;2022-12-08T03:55:19;1.00;0.00;0.00
76049;PMS7003;64967;50.234;19.224;2022-12-08T03:57:46;0.00;0.00;0.00
76049;PMS7003;64967;50.234;19.224;2022-12-08T04:00:14;0.00;0.00;0.00
76049;PMS7003;64967;50.234;19.224;2022-12-08T04:02:42;0.00;0.00;0.00
76049;PMS7003;64967;50.234;19.224;2022-12-08T04:05:09;0.00;0.00;0.00
76049;PMS7003;64967;50.234;19.224;2022-12-08T04:07:36;0.00;0.00;0.00
76049;PMS7003;64967;50.234;19.224;2022-12-08T04:10:03;0.00;0.00;0.00
76049;PMS7003;64967;50.234;19.224;2022-12-08T04:12:31;0.50;0.00;0.00
76049;PMS7003;64967;50.234;19.224;2022-12-08T04:14:58;0.00;0.00;0.00
76049;PMS7003;64967;50.234;19.224;2022-12-08T04:17:25;0.00;0.00;0.00
76049;PMS7003;64967;50.234;19.224;2022-12-08T04:19:52;0.00;0.00;0.00
76049;PMS7003;64967;50.234;19.224;2022-12-08T04:22:19;0.00;0.00;0.00
76049;PMS7003;64967;50.234;19.224;2022-12-08T04:24:46;0.00;0.00;0.00
76049;PMS7003;64967;50.234;19.224;2022-12-08T04:27:13;0.00;0.00;0.00
76049;PMS7003;64967;50.234;19.224;2022-12-08T04:29:40;0.00;0.00;0.00
76049;PMS7003;64967;50.234;19.224;2022-12-08T04:32:07;0.00;0.00;0.00
76049;PMS7003;64967;50.234;19.224;2022-12-08T04:34:34;0.00;0.00;0.00
76049;PMS7003;64967;50.234;19.224;2022-12-08T04:37:01;0.00;0.00;0.00
76049;PMS7003;64967;50.234;19.224;2022-12-08T04:39:28;1.00;0.00;0.00
76049;PMS7003;64967;50.234;19.224;2022-12-08T04:41:55;0.00;0.00;0.00
76049;PMS7003;64967;50.234;19.224;2022-12-08T04:44:22;0.00;0.00;0.00
76049;PMS7003;64967;50.234;19.224;2022-12-08T04:46:49;0.50;0.00;0.00
76049;PMS7003;64967;50.234;19.224;2022-12-08T04:49:16;0.00;0.00;0.00
76049;PMS7003;64967;50.234;19.224;2022-12-08T04:51:43;0.00;0.00;0.00
76049;PMS7003;64967;50.234;19.224;2022-12-08T04:54:10;0.00;0.00;0.00
76049;PMS7003;64967;50.234;19.224;2022-12-08T04:56:36;0.00;0.00;0.00
76049;PMS7003;64967;50.234;19.224;2022-12-08T04:59:03;0.00;0.00;0.00
76049;PMS7003;64967;50.234;19.224;2022-12-08T05:01:30;0.00;0.00;0.00
76049;PMS7003;64967;50.234;19.224;2022-12-08T05:03:58;0.25;0.00;0.00
76049;PMS7003;64967;50.234;19.224;2022-12-08T05:06:24;0.00;0.00;0.00
76049;PMS7003;64967;50.234;19.224;2022-12-08T05:08:51;0.00;0.00;0.00
76049;PMS7003;64967;50.234;19.224;2022-12-08T05:11:18;1.00;0.00;0.00
76049;PMS7003;64967;50.234;19.224;2022-12-08T05:13:45;0.00;0.00;0.00
76049;PMS7003;64967;50.234;19.224;2022-12-08T05:16:13;0.00;0.00;0.00
76049;PMS7003;64967;50.234;19.224;2022-12-08T05:18:42;1.50;0.00;0.00
76049;PMS7003;64967;50.234;19.224;2022-12-08T05:21:09;0.00;0.00;0.00
76049;PMS7003;64967;50.234;19.224;2022-12-08T05:23:37;0.00;0.00;0.00
76049;PMS7003;64967;50.234;19.224;2022-12-08T05:26:04;0.00;0.00;0.00
76049;PMS7003;64967;50.234;19.224;2022-12-08T05:28:31;2.00;0.00;0.00
76049;PMS7003;64967;50.234;19.224;2022-12-08T05:31:09;0.00;0.00;0.00
76049;PMS7003;64967;50.234;19.224;2022-12-08T05:33:37;0.00;0.00;0.00
76049;PMS7003;64967;50.234;19.224;2022-12-08T05:36:04;0.00;0.00;0.00
76049;PMS7003;64967;50.234;19.224;2022-12-08T05:38:31;0.00;0.00;0.00
76049;PMS7003;64967;50.234;19.224;2022-12-08T05:40:58;0.75;0.00;0.00
76049;PMS7003;64967;50.234;19.224;2022-12-08T05:43:25;0.50;0.00;0.00
76049;PMS7003;64967;50.234;19.224;2022-12-08T05:45:52;0.00;0.00;0.00
76049;PMS7003;64967;50.234;19.224;2022-12-08T05:48:19;1.00;0.00;0.00
76049;PMS7003;64967;50.234;19.224;2022-12-08T05:50:47;0.00;0.00;0.00
76049;PMS7003;64967;50.234;19.224;2022-12-08T05:53:15;1.00;0.00;0.00
76049;PMS7003;64967;50.234;19.224;2022-12-08T05:55:43;0.00;0.00;0.00
76049;PMS7003;64967;50.234;19.224;2022-12-08T05:58:12;0.00;0.00;0.00
76049;PMS7003;64967;50.234;19.224;2022-12-08T06:00:41;0.00;0.00;0.00
76049;PMS7003;64967;50.234;19.224;2022-12-08T06:03:09;0.00;0.00;0.00
76049;PMS7003;64967;50.234;19.224;2022-12-08T06:05:42;0.00;0.00;0.00
76049;PMS7003;64967;50.234;19.224;2022-12-08T06:08:10;0.00;0.00;0.00
76049;PMS7003;64967;50.234;19.224;2022-12-08T06:10:39;0.75;0.00;0.00
76049;PMS7003;64967;50.234;19.224;2022-12-08T06:13:07;0.00;0.00;0.00
76049;PMS7003;64967;50.234;19.224;2022-12-08T06:15:35;0.00;0.00;0.00
76049;PMS7003;64967;50.234;19.224;2022-12-08T06:18:02;1.00;1.00;0.75
76049;PMS7003;64967;50.234;19.224;2022-12-08T06:20:30;4.75;4.00;2.00
76049;PMS7003;64967;50.234;19.224;2022-12-08T06:22:57;4.75;2.50;2.00
76049;PMS7003;64967;50.234;19.224;2022-12-08T06:25:24;2.00;2.00;1.00
76049;PMS7003;64967;50.234;19.224;2022-12-08T06:27:52;5.00;3.00;2.00
76049;PMS7003;64967;50.234;19.224;2022-12-08T06:30:19;4.75;4.00;2.50
76049;PMS7003;64967;50.234;19.224;2022-12-08T06:32:46;5.75;4.25;2.00
76049;PMS7003;64967;50.234;19.224;2022-12-08T06:35:13;2.25;1.75;1.75
76049;PMS7003;64967;50.234;19.224;2022-12-08T06:37:40;2.00;1.50;1.00
76049;PMS7003;64967;50.234;19.224;2022-12-08T06:40:07;5.25;2.00;1.25
76049;PMS7003;64967;50.234;19.224;2022-12-08T06:42:34;1.25;1.00;0.00
76049;PMS7003;64967;50.234;19.224;2022-12-08T06:45:12;1.50;1.00;1.00
76049;PMS7003;64967;50.234;19.224;2022-12-08T06:47:43;2.00;0.00;0.00
76049;PMS7003;64967;50.234;19.224;2022-12-08T06:50:10;1.00;1.00;0.00
76049;PMS7003;64967;50.234;19.224;2022-12-08T06:52:38;2.00;1.25;0.00
76049;PMS7003;64967;50.234;19.224;2022-12-08T06:55:21;0.75;0.75;0.00
76049;PMS7003;64967;50.234;19.224;2022-12-08T06:58:11;0.25;0.00;0.00
76049;PMS7003;64967;50.234;19.224;2022-12-08T07:00:39;0.00;0.00;0.00
76049;PMS7003;64967;50.234;19.224;2022-12-08T07:03:07;0.00;0.00;0.00
76049;PMS7003;64967;50.234;19.224;2022-12-08T07:05:35;0.00;0.00;0.00
76049;PMS7003;64967;50.234;19.224;2022-12-08T07:08:02;1.00;1.00;1.00
76049;PMS7003;64967;50.234;19.224;2022-12-08T07:10:31;0.00;0.00;0.00
76049;PMS7003;64967;50.234;19.224;2022-12-08T07:12:58;0.00;0.00;0.00
76049;PMS7003;64967;50.234;19.224;2022-12-08T07:15:25;1.00;0.00;0.00
76049;PMS7003;64967;50.234;19.224;2022-12-08T07:17:52;0.00;0.00;0.00
76049;PMS7003;64967;50.234;19.224;2022-12-08T07:20:25;0.25;0.00;0.00
76049;PMS7003;64967;50.234;19.224;2022-12-08T07:22:52;0.00;0.00;0.00
76049;PMS7003;64967;50.234;19.224;2022-12-08T07:25:20;0.75;0.00;0.00
76049;PMS7003;64967;50.234;19.224;2022-12-08T07:27:46;1.50;0.00;0.00
76049;PMS7003;64967;50.234;19.224;2022-12-08T07:30:16;0.00;0.00;0.00
76049;PMS7003;64967;50.234;19.224;2022-12-08T07:32:45;0.00;0.00;0.00
76049;PMS7003;64967;50.234;19.224;2022-12-08T07:35:13;0.00;0.00;0.00
76049;PMS7003;64967;50.234;19.224;2022-12-08T07:37:40;0.00;0.00;0.00
76049;PMS7003;64967;50.234;19.224;2022-12-08T07:40:08;0.00;0.00;0.00
76049;PMS7003;64967;50.234;19.224;2022-12-08T07:42:35;0.00;0.00;0.00
76049;PMS7003;64967;50.234;19.224;2022-12-08T07:45:02;0.00;0.00;0.00
76049;PMS7003;64967;50.234;19.224;2022-12-08T07:47:29;0.00;0.00;0.00
76049;PMS7003;64967;50.234;19.224;2022-12-08T07:49:56;1.00;0.00;0.00
76049;PMS7003;64967;50.234;19.224;2022-12-08T07:52:23;2.00;0.00;0.00
76049;PMS7003;64967;50.234;19.224;2022-12-08T07:54:50;0.00;0.00;0.00
76049;PMS7003;64967;50.234;19.224;2022-12-08T07:57:18;0.00;0.00;0.00
76049;PMS7003;64967;50.234;19.224;2022-12-08T07:59:46;0.00;0.00;0.00
76049;PMS7003;64967;50.234;19.224;2022-12-08T08:02:17;0.00;0.00;0.00
76049;PMS7003;64967;50.234;19.224;2022-12-08T08:04:51;0.00;0.00;0.00
76049;PMS7003;64967;50.234;19.224;2022-12-08T08:07:18;1.00;0.00;0.00
76049;PMS7003;64967;50.234;19.224;2022-12-08T08:09:45;0.00;0.00;0.00
76049;PMS7003;64967;50.234;19.224;2022-12-08T08:12:12;0.00;0.00;0.00
76049;PMS7003;64967;50.234;19.224;2022-12-08T08:14:57;0.00;0.00;0.00
76049;PMS7003;64967;50.234;19.224;2022-12-08T08:17:28;0.00;0.00;0.00
76049;PMS7003;64967;50.234;19.224;2022-12-08T08:19:56;0.00;0.00;0.00
76049;PMS7003;64967;50.234;19.224;2022-12-08T08:22:23;0.00;0.00;0.00
76049;PMS7003;64967;50.234;19.224;2022-12-08T08:24:52;0.50;0.00;0.00
76049;PMS7003;64967;50.234;19.224;2022-12-08T08:27:19;0.00;0.00;0.00
76049;PMS7003;64967;50.234;19.224;2022-12-08T08:29:47;2.00;1.00;1.00
76049;PMS7003;64967;50.234;19.224;2022-12-08T08:32:14;0.25;0.00;0.00
76049;PMS7003;64967;50.234;19.224;2022-12-08T08:34:41;0.50;0.50;0.50
76049;PMS7003;64967;50.234;19.224;2022-12-08T08:37:08;0.00;0.00;0.00
76049;PMS7003;64967;50.234;19.224;2022-12-08T08:39:35;0.00;0.00;0.00
76049;PMS7003;64967;50.234;19.224;2022-12-08T08:42:02;0.00;0.00;0.00
76049;PMS7003;64967;50.234;19.224;2022-12-08T08:44:29;0.00;0.00;0.00
76049;PMS7003;64967;50.234;19.224;2022-12-08T08:46:56;0.00;0.00;0.00
76049;PMS7003;64967;50.234;19.224;2022-12-08T08:49:23;0.00;0.00;0.00
76049;PMS7003;64967;50.234;19.224;2022-12-08T08:51:50;0.00;0.00;0.00
76049;PMS7003;64967;50.234;19.224;2022-12-08T08:54:18;0.00;0.00;0.00
76049;PMS7003;64967;50.234;19.224;2022-12-08T08:56:45;0.00;0.00;0.00
76049;PMS7003;64967;50.234;19.224;2022-12-08T08:59:13;0.25;0.25;0.00
76049;PMS7003;64967;50.234;19.224;2022-12-08T09:01:42;1.00;0.50;0.00
76049;PMS7003;64967;50.234;19.224;2022-12-08T09:04:09;1.00;0.00;0.00
76049;PMS7003;64967;50.234;19.224;2022-12-08T09:06:36;1.00;0.00;0.00
76049;PMS7003;64967;50.234;19.224;2022-12-08T09:09:03;2.00;0.50;0.00
76049;PMS7003;64967;50.234;19.224;2022-12-08T09:11:31;2.00;1.00;1.00
76049;PMS7003;64967;50.234;19.224;2022-12-08T09:13:58;1.00;0.50;0.25
76049;PMS7003;64967;50.234;19.224;2022-12-08T09:16:25;0.00;0.00;0.00
76049;PMS7003;64967;50.234;19.224;2022-12-08T09:18:52;1.25;0.00;0.00
76049;PMS7003;64967;50.234;19.224;2022-12-08T09:21:21;1.00;0.00;0.00
76049;PMS7003;64967;50.234;19.224;2022-12-08T09:23:52;0.00;0.00;0.00
76049;PMS7003;64967;50.234;19.224;2022-12-08T09:26:21;0.00;0.00;0.00
76049;PMS7003;64967;50.234;19.224;2022-12-08T09:28:51;0.75;0.75;0.25
76049;PMS7003;64967;50.234;19.224;2022-12-08T09:31:20;0.75;0.75;0.00
76049;PMS7003;64967;50.234;19.224;2022-12-08T09:33:48;1.75;1.00;1.00
76049;PMS7003;64967;50.234;19.224;2022-12-08T09:36:19;1.00;1.00;0.75
76049;PMS7003;64967;50.234;19.224;2022-12-08T09:38:46;1.50;1.00;1.00
76049;PMS7003;64967;50.234;19.224;2022-12-08T09:41:30;1.00;1.00;1.00
76049;PMS7003;64967;50.234;19.224;2022-12-08T09:46:51;1.50;1.00;1.00
76049;PMS7003;64967;50.234;19.224;2022-12-08T09:49:21;1.25;1.00;1.00
76049;PMS7003;64967;50.234;19.224;2022-12-08T09:51:53;1.75;0.00;0.00
76049;PMS7003;64967;50.234;19.224;2022-12-08T09:54:21;1.25;1.25;0.00
76049;PMS7003;64967;50.234;19.224;2022-12-08T09:56:56;1.50;0.50;0.00
76049;PMS7003;64967;50.234;19.224;2022-12-08T09:59:30;2.00;1.50;1.00
76049;PMS7003;64967;50.234;19.224;2022-12-08T10:02:05;0.75;0.75;0.75
76049;PMS7003;64967;50.234;19.224;2022-12-08T10:04:46;0.00;0.00;0.00
76049;PMS7003;64967;50.234;19.224;2022-12-08T10:10:24;0.25;0.25;0.00
76049;PMS7003;64967;50.234;19.224;2022-12-08T10:18:58;0.00;0.00;0.00
76049;PMS7003;64967;50.234;19.224;2022-12-08T10:21:33;0.00;0.00;0.00
76049;PMS7003;64967;50.234;19.224;2022-12-08T10:24:02;1.00;0.50;0.50
76049;PMS7003;64967;50.234;19.224;2022-12-08T10:26:35;1.00;0.00;0.00
76049;PMS7003;64967;50.234;19.224;2022-12-08T10:29:03;0.25;0.25;0.00
76049;PMS7003;64967;50.234;19.224;2022-12-08T10:31:30;2.00;2.00;1.00
76049;PMS7003;64967;50.234;19.224;2022-12-08T10:34:08;1.00;1.00;0.00
76049;PMS7003;64967;50.234;19.224;2022-12-08T10:36:43;1.00;0.00;0.00
76049;PMS7003;64967;50.234;19.224;2022-12-08T10:39:27;0.00;0.00;0.00
76049;PMS7003;64967;50.234;19.224;2022-12-08T10:45:08;2.00;1.00;0.00
76049;PMS7003;64967;50.234;19.224;2022-12-08T10:50:45;1.75;1.75;1.00
76049;PMS7003;64967;50.234;19.224;2022-12-08T10:53:20;0.00;0.00;0.00
76049;PMS7003;64967;50.234;19.224;2022-12-08T10:56:13;2.00;1.00;1.00
76049;PMS7003;64967;50.234;19.224;2022-12-08T10:58:44;1.00;1.00;1.00
76049;PMS7003;64967;50.234;19.224;2022-12-08T11:06:19;0.50;0.50;0.00
76049;PMS7003;64967;50.234;19.224;2022-12-08T11:08:59;0.50;0.50;0.00
76049;PMS7003;64967;50.234;19.224;2022-12-08T11:11:43;0.00;0.00;0.00
76049;PMS7003;64967;50.234;19.224;2022-12-08T11:14:24;0.00;0.00;0.00
76049;PMS7003;64967;50.234;19.224;2022-12-08T11:22:37;2.00;1.00;1.00
76049;PMS7003;64967;50.234;19.224;2022-12-08T11:25:16;1.00;1.00;1.00
76049;PMS7003;64967;50.234;19.224;2022-12-08T11:27:47;4.75;1.00;1.00
76049;PMS7003;64967;50.234;19.224;2022-12-08T11:30:18;2.00;1.00;1.00
76049;PMS7003;64967;50.234;19.224;2022-12-08T11:32:48;2.00;1.25;1.00
76049;PMS7003;64967;50.234;19.224;2022-12-08T11:38:10;1.00;1.00;0.00
76049;PMS7003;64967;50.234;19.224;2022-12-08T11:40:50;1.00;1.00;0.50
76049;PMS7003;64967;50.234;19.224;2022-12-08T11:43:45;1.00;1.00;0.00
76049;PMS7003;64967;50.234;19.224;2022-12-08T11:46:31;0.00;0.00;0.00
76049;PMS7003;64967;50.234;19.224;2022-12-08T11:49:01;0.75;0.00;0.00
76049;PMS7003;64967;50.234;19.224;2022-12-08T11:54:32;1.00;0.75;0.00
76049;PMS7003;64967;50.234;19.224;2022-12-08T11:57:10;1.00;0.00;0.00
76049;PMS7003;64967;50.234;19.224;2022-12-08T11:59:43;0.50;0.00;0.00
76049;PMS7003;64967;50.234;19.224;2022-12-08T12:02:19;0.00;0.00;0.00
76049;PMS7003;64967;50.234;19.224;2022-12-08T12:05:08;0.75;0.75;0.00
76049;PMS7003;64967;50.234;19.224;2022-12-08T12:11:15;1.00;0.50;0.00
76049;PMS7003;64967;50.234;19.224;2022-12-08T12:19:26;0.00;0.00;0.00
76049;PMS7003;64967;50.234;19.224;2022-12-08T12:22:13;1.75;0.00;0.00
76049;PMS7003;64967;50.234;19.224;2022-12-08T12:24:46;0.50;0.00;0.00
76049;PMS7003;64967;50.234;19.224;2022-12-08T12:27:23;0.25;0.00;0.00
76049;PMS7003;64967;50.234;19.224;2022-12-08T12:30:02;0.00;0.00;0.00
76049;PMS7003;64967;50.234;19.224;2022-12-08T12:32:51;1.00;0.00;0.00
76049;PMS7003;64967;50.234;19.224;2022-12-08T12:35:23;0.00;0.00;0.00
76049;PMS7003;64967;50.234;19.224;2022-12-08T12:38:06;0.00;0.00;0.00
76049;PMS7003;64967;50.234;19.224;2022-12-08T12:41:04;0.75;0.00;0.00
76049;PMS7003;64967;50.234;19.224;2022-12-08T12:43:34;0.00;0.00;0.00
76049;PMS7003;64967;50.234;19.224;2022-12-08T12:47:05;0.00;0.00;0.00
76049;PMS7003;64967;50.234;19.224;2022-12-08T12:54:44;0.00;0.00;0.00
76049;PMS7003;64967;50.234;19.224;2022-12-08T12:57:37;0.00;0.00;0.00
76049;PMS7003;64967;50.234;19.224;2022-12-08T13:00:06;0.75;0.00;0.00
76049;PMS7003;64967;50.234;19.224;2022-12-08T13:05:30;1.00;1.00;0.00
76049;PMS7003;64967;50.234;19.224;2022-12-08T13:08:20;0.00;0.00;0.00
76049;PMS7003;64967;50.234;19.224;2022-12-08T13:11:06;0.00;0.00;0.00
76049;PMS7003;64967;50.234;19.224;2022-12-08T13:13:36;0.00;0.00;0.00
76049;PMS7003;64967;50.234;19.224;2022-12-08T13:18:48;0.00;0.00;0.00
76049;PMS7003;64967;50.234;19.224;2022-12-08T13:21:19;0.00;0.00;0.00
76049;PMS7003;64967;50.234;19.224;2022-12-08T13:23:49;0.00;0.00;0.00
76049;PMS7003;64967;50.234;19.224;2022-12-08T13:26:18;0.00;0.00;0.00
76049;PMS7003;64967;50.234;19.224;2022-12-08T13:34:05;0.00;0.00;0.00
76049;PMS7003;64967;50.234;19.224;2022-12-08T13:36:51;0.00;0.00;0.00
76049;PMS7003;64967;50.234;19.224;2022-12-08T13:39:23;0.25;0.00;0.00
76049;PMS7003;64967;50.234;19.224;2022-12-08T13:42:06;0.00;0.00;0.00
76049;PMS7003;64967;50.234;19.224;2022-12-08T13:44:53;0.00;0.00;0.00
76049;PMS7003;64967;50.234;19.224;2022-12-08T13:47:55;0.00;0.00;0.00
76049;PMS7003;64967;50.234;19.224;2022-12-08T13:53:37;0.00;0.00;0.00
76049;PMS7003;64967;50.234;19.224;2022-12-08T13:56:27;0.00;0.00;0.00
76049;PMS7003;64967;50.234;19.224;2022-12-08T14:01:48;0.75;0.75;0.50
76049;PMS7003;64967;50.234;19.224;2022-12-08T14:04:17;0.00;0.00;0.00
76049;PMS7003;64967;50.234;19.224;2022-12-08T14:07:07;0.00;0.00;0.00
76049;PMS7003;64967;50.234;19.224;2022-12-08T14:09:36;1.00;1.00;0.50
76049;PMS7003;64967;50.234;19.224;2022-12-08T14:12:06;0.50;0.00;0.00
76049;PMS7003;64967;50.234;19.224;2022-12-08T14:14:41;0.00;0.00;0.00
76049;PMS7003;64967;50.234;19.224;2022-12-08T14:17:29;0.00;0.00;0.00
76049;PMS7003;64967;50.234;19.224;2022-12-08T14:19:57;2.00;0.00;0.00
76049;PMS7003;64967;50.234;19.224;2022-12-08T14:22:40;1.00;0.00;0.00
76049;PMS7003;64967;50.234;19.224;2022-12-08T14:25:10;1.00;0.00;0.00
76049;PMS7003;64967;50.234;19.224;2022-12-08T14:27:41;1.00;1.00;0.00
76049;PMS7003;64967;50.234;19.224;2022-12-08T14:32:42;1.25;1.00;1.00
76049;PMS7003;64967;50.234;19.224;2022-12-08T14:35:21;1.00;0.00;0.00
76049;PMS7003;64967;50.234;19.224;2022-12-08T14:38:00;0.00;0.00;0.00
76049;PMS7003;64967;50.234;19.224;2022-12-08T14:40:41;0.00;0.00;0.00
76049;PMS7003;64967;50.234;19.224;2022-12-08T14:43:14;0.75;0.00;0.00
76049;PMS7003;64967;50.234;19.224;2022-12-08T14:45:46;0.00;0.00;0.00
76049;PMS7003;64967;50.234;19.224;2022-12-08T14:48:21;1.00;0.00;0.00
76049;PMS7003;64967;50.234;19.224;2022-12-08T14:53:34;0.00;0.00;0.00
76049;PMS7003;64967;50.234;19.224;2022-12-08T14:56:22;0.00;0.00;0.00
76049;PMS7003;64967;50.234;19.224;2022-12-08T14:59:01;0.50;0.00;0.00
76049;PMS7003;64967;50.234;19.224;2022-12-08T15:01:51;0.00;0.00;0.00
76049;PMS7003;64967;50.234;19.224;2022-12-08T15:04:36;0.75;0.00;0.00
76049;PMS7003;64967;50.234;19.224;2022-12-08T15:07:06;0.00;0.00;0.00
76049;PMS7003;64967;50.234;19.224;2022-12-08T15:09:40;0.00;0.00;0.00
76049;PMS7003;64967;50.234;19.224;2022-12-08T15:14:42;0.00;0.00;0.00
76049;PMS7003;64967;50.234;19.224;2022-12-08T15:23:00;0.00;0.00;0.00
76049;PMS7003;64967;50.234;19.224;2022-12-08T15:25:28;0.00;0.00;0.00
76049;PMS7003;64967;50.234;19.224;2022-12-08T15:27:55;0.00;0.00;0.00
76049;PMS7003;64967;50.234;19.224;2022-12-08T15:30:23;1.00;0.00;0.00
76049;PMS7003;64967;50.234;19.224;2022-12-08T15:32:54;0.00;0.00;0.00
76049;PMS7003;64967;50.234;19.224;2022-12-08T15:35:21;0.00;0.00;0.00
76049;PMS7003;64967;50.234;19.224;2022-12-08T15:37:48;1.25;1.00;1.00
76049;PMS7003;64967;50.234;19.224;2022-12-08T15:40:17;1.75;1.00;0.50
76049;PMS7003;64967;50.234;19.224;2022-12-08T15:42:45;2.75;1.00;1.00
76049;PMS7003;64967;50.234;19.224;2022-12-08T15:45:13;0.50;0.50;0.00
76049;PMS7003;64967;50.234;19.224;2022-12-08T15:47:41;1.25;1.25;1.00
76049;PMS7003;64967;50.234;19.224;2022-12-08T15:50:16;5.00;3.00;2.75
76049;PMS7003;64967;50.234;19.224;2022-12-08T15:52:48;3.00;2.00;2.00
76049;PMS7003;64967;50.234;19.224;2022-12-08T15:55:17;3.50;2.00;1.00
76049;PMS7003;64967;50.234;19.224;2022-12-08T15:57:49;5.00;3.00;2.00
76049;PMS7003;64967;50.234;19.224;2022-12-08T16:00:39;2.00;2.00;1.50
76049;PMS7003;64967;50.234;19.224;2022-12-08T16:06:17;6.00;2.00;1.75
76049;PMS7003;64967;50.234;19.224;2022-12-08T16:09:10;1.25;1.00;0.25
76049;PMS7003;64967;50.234;19.224;2022-12-08T16:11:52;2.00;1.00;1.00
76049;PMS7003;64967;50.234;19.224;2022-12-08T16:14:38;6.25;3.25;2.00
76049;PMS7003;64967;50.234;19.224;2022-12-08T16:17:27;6.50;6.00;5.00
76049;PMS7003;64967;50.234;19.224;2022-12-08T16:19:54;3.50;3.50;2.25
76049;PMS7003;64967;50.234;19.224;2022-12-08T16:22:31;2.00;1.25;1.00
76049;PMS7003;64967;50.234;19.224;2022-12-08T16:25:19;6.00;3.00;2.00
76049;PMS7003;64967;50.234;19.224;2022-12-08T16:27:49;5.00;2.25;2.00
76049;PMS7003;64967;50.234;19.224;2022-12-08T16:30:38;0.00;0.00;0.00
76049;PMS7003;64967;50.234;19.224;2022-12-08T16:33:05;5.00;4.50;2.00
76049;PMS7003;64967;50.234;19.224;2022-12-08T16:35:32;10.25;8.00;6.50
76049;PMS7003;64967;50.234;19.224;2022-12-08T16:37:59;13.75;11.00;9.00
76049;PMS7003;64967;50.234;19.224;2022-12-08T16:40:26;13.25;11.50;8.00
76049;PMS7003;64967;50.234;19.224;2022-12-08T16:42:54;19.00;15.50;12.00